createdAt,value
2022-10-18T00:00:20.811Z,10.94
2022-10-18T00:02:47.941Z,10.96
2022-10-18T00:05:16.030Z,9.42
2022-10-18T00:07:42.991Z,7.62
2022-10-18T00:10:10.702Z,10.26
2022-10-18T00:12:38.624Z,10.08
2022-10-18T00:15:08.131Z,12.18
2022-10-18T00:17:39.713Z,10.49
2022-10-18T00:20:07.735Z,11.02
2022-10-18T00:22:37.340Z,12.14
2022-10-18T00:25:06.048Z,12.14
2022-10-18T00:27:34.388Z,12.09
2022-10-18T00:30:01.384Z,11.69
2022-10-18T00:32:28.607Z,11.62
2022-10-18T00:34:55.811Z,9.97
2022-10-18T00:37:22.848Z,10.78
2022-10-18T00:39:49.841Z,7.83
2022-10-18T00:42:21.895Z,10.10
2022-10-18T00:44:51.962Z,11.93
2022-10-18T00:47:20.077Z,11.01
2022-10-18T00:49:56.080Z,10.51
2022-10-18T00:52:29.906Z,11.08
2022-10-18T00:54:58.526Z,9.32
2022-10-18T00:57:26.247Z,11.98
2022-10-18T00:59:54.139Z,11.96
2022-10-18T01:02:21.876Z,9.46
2022-10-18T01:04:49.334Z,10.15
2022-10-18T01:07:32.284Z,12.02
2022-10-18T01:10:08.635Z,12.00
2022-10-18T01:12:47.865Z,11.99
2022-10-18T01:15:48.816Z,12.04
2022-10-18T01:18:15.569Z,12.03
2022-10-18T01:21:04.811Z,12.03
2022-10-18T01:23:50.965Z,11.99
2022-10-18T01:26:17.832Z,12.03
2022-10-18T01:29:09.133Z,8.76
2022-10-18T01:31:46.925Z,11.92
2022-10-18T01:34:18.324Z,9.43
2022-10-18T01:36:50.034Z,11.78
2022-10-18T01:39:22.527Z,10.63
2022-10-18T01:41:52.092Z,3.67
2022-10-18T01:44:24.939Z,5.31
2022-10-18T01:46:54.235Z,11.90
2022-10-18T01:49:21.872Z,12.10
2022-10-18T01:51:49.106Z,9.06
2022-10-18T01:54:20.900Z,10.96
2022-10-18T01:56:50.688Z,12.14
2022-10-18T01:59:46.964Z,12.10
2022-10-18T02:02:26.457Z,12.08
2022-10-18T02:05:34.811Z,9.59
2022-10-18T02:08:29.869Z,12.04
2022-10-18T02:11:04.923Z,10.63
2022-10-18T02:13:42.486Z,11.98
2022-10-18T02:16:16.063Z,9.58
2022-10-18T02:18:50.196Z,11.93
2022-10-18T02:21:21.050Z,11.91
2022-10-18T02:23:48.945Z,11.90
2022-10-18T02:26:16.595Z,10.67
2022-10-18T02:28:46.035Z,11.88
2022-10-18T02:31:20.878Z,10.91
2022-10-18T02:33:58.960Z,11.80
2022-10-18T02:36:48.123Z,6.84
2022-10-18T02:39:19.705Z,10.62
2022-10-18T02:41:47.405Z,11.37
2022-10-18T02:44:14.483Z,5.29
2022-10-18T02:46:42.493Z,11.50
2022-10-18T02:49:09.514Z,11.04
2022-10-18T02:51:36.834Z,10.38
2022-10-18T02:54:04.086Z,11.70
2022-10-18T02:56:31.173Z,10.44
2022-10-18T02:58:58.244Z,10.83
2022-10-18T03:01:25.248Z,2.24
2022-10-18T03:03:52.225Z,9.53
2022-10-18T03:06:19.662Z,11.45
2022-10-18T03:08:46.658Z,8.63
2022-10-18T03:11:13.805Z,9.65
2022-10-18T03:13:40.781Z,11.07
2022-10-18T03:16:07.741Z,10.11
2022-10-18T03:18:34.770Z,8.39
2022-10-18T03:21:06.605Z,11.39
2022-10-18T03:23:33.618Z,10.78
2022-10-18T03:26:01.060Z,6.96
2022-10-18T03:28:28.131Z,8.01
2022-10-18T03:31:02.742Z,11.76
2022-10-18T03:33:30.867Z,11.39
2022-10-18T03:35:58.517Z,9.38
2022-10-18T03:38:25.527Z,10.50
2022-10-18T03:40:52.530Z,11.77
2022-10-18T03:43:19.874Z,11.75
2022-10-18T03:45:47.231Z,11.40
2022-10-18T03:48:14.524Z,5.24
2022-10-18T03:50:41.384Z,10.28
2022-10-18T03:53:08.441Z,11.76
2022-10-18T03:55:35.553Z,11.40
2022-10-18T03:58:04.900Z,6.70
2022-10-18T04:00:31.991Z,8.33
2022-10-18T04:02:58.967Z,4.22
2022-10-18T04:05:28.327Z,3.17
2022-10-18T04:07:55.452Z,6.95
2022-10-18T04:10:23.398Z,11.64
2022-10-18T04:12:50.325Z,-1.30
2022-10-18T04:15:17.328Z,7.92
2022-10-18T04:17:44.243Z,4.65
2022-10-18T04:20:11.587Z,11.35
2022-10-18T04:22:38.639Z,8.96
2022-10-18T04:25:06.057Z,11.79
2022-10-18T04:27:33.336Z,5.48
2022-10-18T04:30:00.603Z,10.40
2022-10-18T04:32:29.437Z,10.55
2022-10-18T04:34:56.383Z,10.71
2022-10-18T04:37:23.721Z,11.72
2022-10-18T04:39:53.493Z,10.36
2022-10-18T04:42:21.828Z,9.94
2022-10-18T04:44:49.348Z,8.90
2022-10-18T04:47:17.497Z,11.65
2022-10-18T04:49:44.609Z,7.93
2022-10-18T04:52:11.662Z,9.93
2022-10-18T04:54:38.592Z,8.63
2022-10-18T04:57:05.620Z,10.65
2022-10-18T04:59:32.650Z,9.05
2022-10-18T05:01:59.683Z,10.45
2022-10-18T05:04:26.982Z,2.76
2022-10-18T05:06:53.926Z,10.67
2022-10-18T05:09:24.913Z,1.29
2022-10-18T05:11:52.006Z,10.90
2022-10-18T05:14:19.146Z,10.97
2022-10-18T05:16:46.303Z,9.93
2022-10-18T05:19:13.355Z,8.47
2022-10-18T05:21:40.515Z,8.79
2022-10-18T05:24:07.840Z,11.59
2022-10-18T05:26:34.841Z,10.65
2022-10-18T05:29:02.016Z,8.30
2022-10-18T05:31:30.886Z,11.27
2022-10-18T05:33:57.835Z,10.09
2022-10-18T05:36:26.479Z,9.24
2022-10-18T05:38:54.411Z,8.50
2022-10-18T05:41:21.820Z,10.03
2022-10-18T05:43:48.741Z,9.42
2022-10-18T05:46:15.966Z,9.45
2022-10-18T05:48:44.821Z,11.50
2022-10-18T05:51:12.291Z,2.78
2022-10-18T05:53:39.296Z,11.06
2022-10-18T05:56:07.448Z,9.16
2022-10-18T05:58:35.193Z,11.75
2022-10-18T06:01:03.386Z,12.22
2022-10-18T06:03:33.688Z,12.31
2022-10-18T06:06:01.239Z,12.33
2022-10-18T06:08:28.227Z,10.40
2022-10-18T06:10:55.321Z,9.13
2022-10-18T06:13:22.350Z,12.25
2022-10-18T06:15:49.458Z,10.71
2022-10-18T06:18:16.891Z,12.37
2022-10-18T06:20:43.916Z,8.38
2022-10-18T06:23:10.873Z,9.76
2022-10-18T06:25:37.785Z,7.45
2022-10-18T06:28:07.958Z,8.46
2022-10-18T06:30:37.406Z,11.74
2022-10-18T06:33:04.547Z,13.20
2022-10-18T06:35:31.568Z,5.95
2022-10-18T06:37:58.563Z,11.96
2022-10-18T06:40:25.517Z,11.93
2022-10-18T06:43:00.663Z,6.32
2022-10-18T06:45:37.545Z,12.21
2022-10-18T06:48:04.793Z,11.94
2022-10-18T06:50:31.776Z,10.22
2022-10-18T06:52:58.970Z,9.06
2022-10-18T06:55:25.921Z,12.30
2022-10-18T06:57:54.549Z,11.77
2022-10-18T07:00:21.458Z,10.15
2022-10-18T07:02:48.824Z,13.31
2022-10-18T07:05:15.997Z,12.33
2022-10-18T07:07:43.108Z,13.48
2022-10-18T07:10:13.004Z,13.64
2022-10-18T07:12:40.295Z,14.13
2022-10-18T07:15:09.451Z,12.75
2022-10-18T07:17:36.865Z,12.13
2022-10-18T07:20:04.645Z,14.24
2022-10-18T07:22:31.563Z,14.52
2022-10-18T07:24:58.519Z,14.74
2022-10-18T07:27:25.539Z,14.26
2022-10-18T07:29:52.496Z,14.23
2022-10-18T07:32:19.890Z,7.30
2022-10-18T07:34:46.842Z,12.40
2022-10-18T07:37:13.770Z,14.26
2022-10-18T07:39:40.703Z,15.61
2022-10-18T07:42:07.693Z,15.13
2022-10-18T07:44:34.525Z,14.26
2022-10-18T07:47:01.576Z,13.74
2022-10-18T07:49:28.539Z,14.46
2022-10-18T07:51:55.422Z,14.05
2022-10-18T07:54:22.848Z,14.36
2022-10-18T07:56:49.819Z,15.57
2022-10-18T07:59:16.801Z,15.64
2022-10-18T08:01:43.745Z,14.69
2022-10-18T08:04:16.070Z,15.21
2022-10-18T08:06:43.890Z,10.94
2022-10-18T08:09:10.887Z,13.50
2022-10-18T08:11:37.895Z,12.32
2022-10-18T08:14:04.877Z,15.31
2022-10-18T08:19:18.880Z,16.21
2022-10-18T08:21:45.835Z,14.74
2022-10-18T08:24:12.831Z,12.82
2022-10-18T08:26:39.725Z,13.29
2022-10-18T08:29:25.735Z,15.64
2022-10-18T08:31:53.630Z,14.64
2022-10-18T08:34:20.652Z,16.11
2022-10-18T08:36:47.625Z,15.81
2022-10-18T08:39:14.672Z,16.02
2022-10-18T08:41:54.172Z,17.28
2022-10-18T08:44:24.899Z,16.70
2022-10-18T08:46:53.255Z,17.43
2022-10-18T08:49:33.739Z,17.56
2022-10-18T08:52:00.818Z,16.60
2022-10-18T08:54:32.054Z,17.55
2022-10-18T08:57:02.617Z,17.63
2022-10-18T08:59:32.559Z,17.55
2022-10-18T09:02:20.926Z,17.81
2022-10-18T09:04:50.974Z,17.95
2022-10-18T09:07:55.630Z,18.08
2022-10-18T09:10:50.735Z,18.00
2022-10-18T09:13:58.910Z,17.96
2022-10-18T09:16:50.644Z,18.16
2022-10-18T09:19:35.830Z,18.21
2022-10-18T09:22:16.684Z,17.08
2022-10-18T09:24:52.017Z,18.00
2022-10-18T09:27:21.051Z,17.77
2022-10-18T09:30:21.143Z,17.32
2022-10-18T09:32:59.949Z,18.41
2022-10-18T09:35:40.117Z,18.54
2022-10-18T09:38:13.479Z,18.74
2022-10-18T09:41:26.988Z,17.80
2022-10-18T09:44:16.164Z,18.80
2022-10-18T09:46:49.490Z,18.55
2022-10-18T09:49:31.301Z,18.86
2022-10-18T09:52:04.027Z,17.12
2022-10-18T09:54:42.373Z,18.66
2022-10-18T09:57:25.347Z,16.91
2022-10-18T09:59:52.415Z,17.04
2022-10-18T10:02:24.167Z,18.38
2022-10-18T10:04:52.395Z,18.33
2022-10-18T10:07:24.389Z,18.79
2022-10-18T10:10:05.037Z,18.98
2022-10-18T10:12:40.011Z,19.15
2022-10-18T10:15:12.889Z,18.93
2022-10-18T10:17:40.644Z,18.14
2022-10-18T10:20:23.613Z,17.33
2022-10-18T10:22:52.465Z,18.03
2022-10-18T10:25:29.373Z,14.35
2022-10-18T10:28:01.554Z,18.99
2022-10-18T10:30:32.900Z,17.66
2022-10-18T10:33:00.081Z,18.19
2022-10-18T10:35:54.347Z,19.05
2022-10-18T10:38:29.754Z,16.67
2022-10-18T10:40:57.625Z,17.36
2022-10-18T10:43:38.102Z,19.03
2022-10-18T10:46:20.285Z,18.82
2022-10-18T10:48:47.225Z,18.96
2022-10-18T10:51:16.217Z,17.88
2022-10-18T10:53:51.299Z,16.34
2022-10-18T10:56:28.220Z,18.84
2022-10-18T10:58:58.712Z,18.86
2022-10-18T11:01:33.552Z,18.81
2022-10-18T11:04:30.387Z,16.53
2022-10-18T11:07:36.370Z,18.99
2022-10-18T11:10:12.690Z,19.00
2022-10-18T11:13:08.125Z,18.96
2022-10-18T11:15:47.865Z,17.79
2022-10-18T11:18:20.415Z,19.03
2022-10-18T11:21:08.623Z,19.06
2022-10-18T11:23:38.104Z,18.41
2022-10-18T11:26:13.750Z,19.19
2022-10-18T11:29:06.838Z,19.27
2022-10-18T11:31:39.909Z,19.31
2022-10-18T11:34:54.802Z,17.45
2022-10-18T11:37:40.646Z,19.25
2022-10-18T11:40:45.218Z,18.95
2022-10-18T11:43:34.430Z,17.30
2022-10-18T11:46:48.126Z,19.14
2022-10-18T11:49:33.516Z,17.41
2022-10-18T11:52:12.258Z,19.15
2022-10-18T11:55:07.001Z,19.05
2022-10-18T11:57:55.334Z,19.00
2022-10-18T12:00:45.068Z,18.55
2022-10-18T12:03:21.503Z,19.11
2022-10-18T12:05:51.534Z,16.73
2022-10-18T12:08:21.375Z,19.23
2022-10-18T12:11:09.238Z,19.23
2022-10-18T12:13:48.901Z,19.17
2022-10-18T12:16:18.420Z,18.67
2022-10-18T12:19:00.967Z,19.15
2022-10-18T12:21:32.220Z,19.16
2022-10-18T12:24:07.322Z,18.47
2022-10-18T12:26:35.906Z,19.39
2022-10-18T12:29:45.393Z,19.37
2022-10-18T12:32:27.464Z,19.15
2022-10-18T12:35:06.970Z,19.42
2022-10-18T12:37:58.228Z,19.52
2022-10-18T12:40:46.235Z,19.16
2022-10-18T12:43:24.436Z,18.76
2022-10-18T12:45:56.292Z,19.22
2022-10-18T12:48:34.101Z,19.44
2022-10-18T12:51:22.306Z,18.85
2022-10-18T12:54:11.297Z,18.15
2022-10-18T12:56:42.392Z,19.48
2022-10-18T12:59:15.666Z,19.43
2022-10-18T13:01:51.729Z,19.51
2022-10-18T13:04:27.964Z,19.56
2022-10-18T13:06:57.734Z,19.58
2022-10-18T13:09:27.745Z,18.51
2022-10-18T13:12:02.075Z,18.97
2022-10-18T13:15:05.670Z,19.41
2022-10-18T13:18:01.345Z,18.90
2022-10-18T13:20:38.864Z,18.99
2022-10-18T13:23:17.963Z,19.48
2022-10-18T13:26:13.222Z,19.50
2022-10-18T13:28:40.172Z,19.50
2022-10-18T13:31:22.543Z,19.44
2022-10-18T13:33:50.483Z,18.80
2022-10-18T13:36:22.591Z,19.31
2022-10-18T13:39:06.489Z,19.31
2022-10-18T13:41:35.460Z,19.16
2022-10-18T13:44:02.714Z,19.17
2022-10-18T13:46:36.858Z,19.10
2022-10-18T13:49:22.681Z,18.97
2022-10-18T13:52:11.567Z,18.96
2022-10-18T13:54:44.549Z,18.92
2022-10-18T13:57:46.596Z,18.86
2022-10-18T14:00:19.480Z,18.84
2022-10-18T14:02:57.739Z,18.82
2022-10-18T14:06:00.786Z,17.30
2022-10-18T14:08:46.491Z,18.76
2022-10-18T14:11:35.002Z,18.68
2022-10-18T14:14:14.613Z,18.30
2022-10-18T14:16:55.024Z,18.52
2022-10-18T14:19:51.541Z,18.42
2022-10-18T14:22:28.861Z,18.39
2022-10-18T14:24:58.071Z,14.42
2022-10-18T14:27:27.929Z,18.39
2022-10-18T14:30:27.433Z,18.27
2022-10-18T14:32:57.104Z,17.42
2022-10-18T14:35:32.533Z,17.26
2022-10-18T14:38:00.226Z,15.63
2022-10-18T14:40:31.989Z,18.07
2022-10-18T14:43:20.418Z,18.10
2022-10-18T14:45:47.447Z,18.07
2022-10-18T14:48:22.018Z,17.54
2022-10-18T14:50:59.511Z,15.18
2022-10-18T14:53:32.922Z,15.56
2022-10-18T14:56:01.285Z,16.69
2022-10-18T14:58:29.109Z,10.43
2022-10-18T15:00:56.264Z,16.51
2022-10-18T15:03:24.181Z,17.73
2022-10-18T15:05:56.195Z,17.64
2022-10-18T15:08:25.223Z,17.11
2022-10-18T15:10:52.716Z,16.93
2022-10-18T15:13:19.874Z,15.29
2022-10-18T15:15:47.540Z,17.27
2022-10-18T15:18:22.574Z,16.64
2022-10-18T15:21:22.525Z,16.47
2022-10-18T15:23:50.719Z,15.89
2022-10-18T15:26:35.855Z,15.89
2022-10-18T15:29:06.111Z,16.59
2022-10-18T15:31:44.612Z,16.85
2022-10-18T15:34:26.406Z,14.94
2022-10-18T15:36:56.380Z,15.81
2022-10-18T15:39:31.001Z,16.61
2022-10-18T15:42:00.253Z,16.59
2022-10-18T15:44:35.088Z,16.57
2022-10-18T15:47:16.490Z,16.57
2022-10-18T15:49:46.535Z,16.55
2022-10-18T15:52:22.499Z,16.54
2022-10-18T15:54:49.608Z,14.32
2022-10-18T15:57:18.815Z,16.18
2022-10-18T16:00:04.073Z,14.90
2022-10-18T16:02:31.892Z,15.74
2022-10-18T16:05:03.182Z,15.93
2022-10-18T16:07:30.437Z,11.88
2022-10-18T16:09:57.583Z,15.63
2022-10-18T16:12:24.419Z,15.12
2022-10-18T16:14:51.384Z,13.70
2022-10-18T16:17:18.401Z,15.23
2022-10-18T16:19:45.548Z,9.56
2022-10-18T16:25:00.681Z,16.37
2022-10-18T16:27:28.004Z,16.26
2022-10-18T16:29:54.942Z,14.13
2022-10-18T16:32:21.875Z,13.21
2022-10-18T16:34:48.815Z,12.12
2022-10-18T16:37:15.957Z,14.90
2022-10-18T16:39:42.795Z,14.62
2022-10-18T16:42:09.706Z,14.87
2022-10-18T16:44:36.657Z,12.73
2022-10-18T16:47:03.848Z,14.01
2022-10-18T16:49:30.862Z,14.58
2022-10-18T16:51:58.018Z,13.52
2022-10-18T16:54:25.156Z,14.56
2022-10-18T16:56:52.141Z,14.40
2022-10-18T16:59:26.383Z,14.31
2022-10-18T17:01:53.388Z,11.99
2022-10-18T17:04:20.447Z,13.77
2022-10-18T17:06:49.460Z,13.31
2022-10-18T17:09:16.757Z,14.09
2022-10-18T17:11:43.939Z,14.12
2022-10-18T17:14:10.921Z,9.35
2022-10-18T17:16:39.234Z,12.86
2022-10-18T17:19:10.698Z,14.04
2022-10-18T17:21:37.948Z,14.05
2022-10-18T17:24:06.449Z,5.94
2022-10-18T17:26:33.849Z,14.05
2022-10-18T17:29:04.736Z,13.68
2022-10-18T17:31:32.762Z,13.97
2022-10-18T17:34:02.232Z,13.67
2022-10-18T17:36:30.516Z,12.67
2022-10-18T17:38:57.493Z,12.32
2022-10-18T17:41:24.469Z,13.97
2022-10-18T17:43:51.472Z,12.58
2022-10-18T17:46:19.783Z,13.45
2022-10-18T17:48:47.157Z,14.04
2022-10-18T17:51:17.092Z,11.53
2022-10-18T17:53:44.530Z,14.04
2022-10-18T17:56:13.123Z,13.81
2022-10-18T17:58:40.121Z,13.89
2022-10-18T18:01:19.413Z,12.57
2022-10-18T18:03:48.132Z,13.88
2022-10-18T18:06:25.605Z,12.57
2022-10-18T18:08:52.647Z,12.53
2022-10-18T18:11:19.600Z,12.82
2022-10-18T18:13:46.585Z,13.80
2022-10-18T18:16:22.157Z,13.77
2022-10-18T18:18:52.725Z,11.88
2022-10-18T18:21:20.827Z,13.50
2022-10-18T18:23:48.873Z,12.55
2022-10-18T18:26:16.860Z,11.91
2022-10-18T18:28:44.213Z,13.28
2022-10-18T18:31:16.965Z,13.20
2022-10-18T18:33:44.381Z,10.28
2022-10-18T18:36:12.228Z,10.99
2022-10-18T18:38:42.891Z,13.10
2022-10-18T18:41:11.353Z,13.13
2022-10-18T18:43:39.876Z,12.65
2022-10-18T18:46:08.153Z,12.92
2022-10-18T18:48:36.404Z,13.06
2022-10-18T18:51:05.284Z,12.25
2022-10-18T18:53:32.968Z,13.07
2022-10-18T18:56:05.553Z,13.12
2022-10-18T18:58:34.965Z,13.08
2022-10-18T19:01:12.309Z,12.11
2022-10-18T19:03:40.592Z,11.40
2022-10-18T19:06:11.020Z,10.41
2022-10-18T19:08:39.633Z,11.47
2022-10-18T19:11:09.403Z,10.38
2022-10-18T19:13:37.175Z,12.90
2022-10-18T19:16:17.301Z,11.99
2022-10-18T19:18:44.458Z,12.73
2022-10-18T19:21:11.378Z,12.84
2022-10-18T19:23:38.326Z,11.80
2022-10-18T19:26:13.390Z,13.10
2022-10-18T19:28:40.324Z,10.90
2022-10-18T19:31:07.968Z,12.31
2022-10-18T19:33:47.954Z,12.81
2022-10-18T19:36:21.865Z,10.32
2022-10-18T19:38:48.849Z,10.93
2022-10-18T19:41:15.868Z,12.43
2022-10-18T19:43:42.900Z,13.19
2022-10-18T19:46:09.943Z,12.00
2022-10-18T19:48:36.937Z,11.24
2022-10-18T19:51:06.381Z,11.51
2022-10-18T19:53:35.797Z,12.02
2022-10-18T19:56:04.703Z,13.16
2022-10-18T19:58:32.597Z,13.14
2022-10-18T20:01:00.575Z,13.15
2022-10-18T20:03:30.640Z,13.19
2022-10-18T20:05:59.722Z,10.71
2022-10-18T20:08:28.707Z,13.15
2022-10-18T20:11:03.625Z,13.13
2022-10-18T20:13:30.792Z,7.69
2022-10-18T20:15:58.043Z,12.57
2022-10-18T20:18:25.496Z,11.79
2022-10-18T20:20:52.475Z,10.51
2022-10-18T20:23:20.344Z,13.21
2022-10-18T20:26:01.957Z,13.16
2022-10-18T20:28:29.769Z,13.19
2022-10-18T20:31:18.164Z,13.03
2022-10-18T20:33:47.086Z,13.14
2022-10-18T20:36:16.833Z,12.46
2022-10-18T20:38:45.914Z,13.19
2022-10-18T20:41:28.030Z,12.15
2022-10-18T20:43:59.919Z,13.11
2022-10-18T20:46:30.123Z,12.50
2022-10-18T20:48:57.527Z,11.25
2022-10-18T20:51:25.019Z,12.76
2022-10-18T20:53:52.568Z,12.33
2022-10-18T20:56:22.361Z,13.18
2022-10-18T20:58:55.664Z,12.13
2022-10-18T21:01:26.100Z,12.38
2022-10-18T21:03:55.203Z,13.05
2022-10-18T21:06:30.435Z,12.98
2022-10-18T21:09:03.949Z,12.03
2022-10-18T21:11:35.151Z,10.60
2022-10-18T21:14:06.589Z,12.91
2022-10-18T21:16:35.814Z,12.85
2022-10-18T21:19:29.378Z,12.21
2022-10-18T21:21:57.892Z,12.86
2022-10-18T21:24:26.373Z,12.89
2022-10-18T21:26:53.860Z,11.82
2022-10-18T21:29:22.492Z,12.53
2022-10-18T21:31:53.255Z,13.02
2022-10-18T21:34:20.217Z,10.74
2022-10-18T21:36:48.444Z,11.42
2022-10-18T21:39:18.443Z,10.55
2022-10-18T21:41:46.107Z,9.62
2022-10-18T21:44:13.325Z,10.50
2022-10-18T21:46:43.282Z,13.02
2022-10-18T21:49:11.267Z,12.92
2022-10-18T21:51:38.521Z,12.62
2022-10-18T21:54:08.640Z,12.93
2022-10-18T21:56:35.934Z,11.87
2022-10-18T21:59:04.147Z,7.94
2022-10-18T22:01:37.041Z,12.92
2022-10-18T22:04:06.445Z,12.96
2022-10-18T22:06:36.604Z,12.83
2022-10-18T22:09:07.555Z,6.50
2022-10-18T22:11:38.280Z,12.72
2022-10-18T22:14:05.353Z,13.10
2022-10-18T22:16:32.373Z,6.01
2022-10-18T22:19:01.542Z,12.80
2022-10-18T22:21:29.710Z,12.74
2022-10-18T22:23:57.953Z,5.57
2022-10-18T22:26:35.515Z,13.00
2022-10-18T22:29:09.140Z,13.01
2022-10-18T22:31:39.273Z,8.72
2022-10-18T22:34:09.046Z,12.97
2022-10-18T22:36:36.466Z,12.96
2022-10-18T22:39:05.880Z,11.07
2022-10-18T22:41:33.815Z,11.85
2022-10-18T22:44:04.037Z,12.78
2022-10-18T22:46:33.177Z,12.95
2022-10-18T22:49:00.647Z,13.12
2022-10-18T22:51:27.929Z,12.96
2022-10-18T22:53:55.098Z,7.84
2022-10-18T22:56:23.325Z,7.20
2022-10-18T22:58:50.805Z,10.94
2022-10-18T23:01:20.786Z,10.10
2022-10-18T23:03:52.134Z,11.74
2022-10-18T23:06:30.428Z,12.93
2022-10-18T23:08:59.462Z,12.81
2022-10-18T23:11:28.603Z,10.76
2022-10-18T23:13:55.904Z,12.86
2022-10-18T23:16:23.636Z,4.73
2022-10-18T23:18:52.386Z,4.44
2022-10-18T23:21:20.531Z,4.35
2022-10-18T23:23:47.718Z,5.92
2022-10-18T23:26:16.829Z,12.82
2022-10-18T23:28:48.893Z,12.78
2022-10-18T23:31:26.331Z,12.82
2022-10-18T23:33:55.946Z,12.01
2022-10-18T23:36:25.144Z,11.99
2022-10-18T23:38:55.181Z,11.41
2022-10-18T23:41:22.939Z,9.31
2022-10-18T23:43:49.925Z,11.35
2022-10-18T23:46:18.100Z,12.51
2022-10-18T23:48:46.026Z,12.48
2022-10-18T23:51:13.240Z,12.28
2022-10-18T23:53:40.381Z,12.28
2022-10-18T23:56:12.983Z,12.33
2022-10-18T23:58:40.432Z,12.27
